Time;durP1;ratioP1;P1;durP2;ratioP2;P2;SDS_P1;SDS_P2;PMS_P1;PMS_P2;Temp;Humidity;BMP_temperature;BMP_pressure;BME280_temperature;BME280_humidity;BME280_pressure;Samples;Min_cycle;Max_cycle;Signal;HPM_P1;HPM_P2
2023/03/22 04:41:05;;;;;;;13.07;1.30;;;13.60;69.70;;;;;;5539052;24;20058;-77
2023/03/22 04:43:33;;;;;;;7.07;1.77;;;13.90;70.00;;;;;;4790473;29;20066;-76
2023/03/22 04:46:00;;;;;;;7.63;1.52;;;14.10;69.70;;;;;;4798605;29;20111;-75
2023/03/22 04:48:28;;;;;;;13.98;2.03;;;14.30;69.60;;;;;;4791965;29;20043;-76
2023/03/22 04:50:54;;;;;;;10.65;1.95;;;14.40;69.50;;;;;;4791457;30;20094;-76
2023/03/22 04:53:25;;;;;;;11.93;1.48;;;14.50;69.50;;;;;;4791689;30;20134;-74
2023/03/22 04:55:55;;;;;;;11.98;2.00;;;14.50;69.50;;;;;;4791302;29;20102;-77
2023/03/22 04:58:23;;;;;;;8.15;1.52;;;14.60;69.50;;;;;;4809159;29;20063;-74
2023/03/22 05:00:51;;;;;;;10.82;2.45;;;14.70;69.50;;;;;;4806290;29;20059;-76
2023/03/22 05:03:21;;;;;;;10.77;2.20;;;14.70;69.50;;;;;;4797270;29;20055;-75
2023/03/22 05:05:57;;;;;;;14.82;2.55;;;14.80;70.00;;;;;;4809680;29;20091;-79
2023/03/22 05:08:25;;;;;;;17.98;2.10;;;14.90;70.30;;;;;;4809921;29;20050;-75
2023/03/22 05:10:52;;;;;;;13.40;1.92;;;14.80;70.10;;;;;;4810311;29;20051;-76
2023/03/22 05:13:21;;;;;;;12.82;2.47;;;14.90;70.50;;;;;;4798976;29;20091;-75
2023/03/22 05:15:48;;;;;;;14.88;2.50;;;14.90;70.50;;;;;;4790029;29;20047;-72
2023/03/22 05:18:25;;;;;;;12.75;1.98;;;15.00;70.60;;;;;;4806093;29;20059;-73
2023/03/22 05:20:54;;;;;;;11.82;1.95;;;15.10;70.60;;;;;;4791005;29;20042;-79
2023/03/22 05:23:20;;;;;;;13.98;2.40;;;15.20;70.70;;;;;;4797602;29;20371;-75
2023/03/22 05:25:47;;;;;;;15.63;2.35;;;15.30;70.60;;;;;;4800758;29;20055;-75
2023/03/22 05:28:13;;;;;;;11.02;1.63;;;15.40;70.60;;;;;;4791096;29;20065;-76
2023/03/22 05:30:43;;;;;;;12.43;3.47;;;15.50;70.40;;;;;;4790793;29;20344;-80
2023/03/22 05:33:08;;;;;;;19.65;2.85;;;15.60;70.60;;;;;;4791735;29;20451;-74
2023/03/22 05:35:36;;;;;;;12.88;2.42;;;15.60;70.80;;;;;;4791071;30;20051;-75
2023/03/22 05:38:02;;;;;;;17.08;2.40;;;15.60;70.90;;;;;;4791340;30;20388;-74
2023/03/22 05:40:28;;;;;;;15.77;3.53;;;15.70;71.20;;;;;;4791183;30;20059;-75
2023/03/22 05:42:54;;;;;;;19.17;2.80;;;15.70;71.50;;;;;;4790191;30;20427;-74
2023/03/22 05:45:20;;;;;;;15.88;3.20;;;15.80;71.50;;;;;;4791313;30;20360;-78
2023/03/22 05:47:47;;;;;;;25.23;3.60;;;15.80;71.40;;;;;;4790058;30;20375;-76
2023/03/22 05:50:15;;;;;;;25.45;3.33;;;15.80;71.50;;;;;;4790936;29;20482;-77
2023/03/22 05:52:41;;;;;;;18.15;2.90;;;15.80;71.70;;;;;;4775236;30;20059;-77
2023/03/22 05:55:08;;;;;;;18.50;3.08;;;15.90;71.80;;;;;;4790920;30;20057;-77
2023/03/22 05:57:34;;;;;;;16.48;2.67;;;15.90;71.80;;;;;;4790956;30;20062;-77
2023/03/22 06:00:04;;;;;;;15.43;2.72;;;15.80;71.80;;;;;;4792264;29;20047;-81
2023/03/22 06:02:30;;;;;;;21.05;3.78;;;15.80;71.70;;;;;;4774122;30;20079;-79
2023/03/22 06:04:59;;;;;;;19.30;3.03;;;15.80;72.00;;;;;;4790477;30;20137;-76
2023/03/22 06:07:28;;;;;;;24.60;3.17;;;15.80;72.20;;;;;;4775150;30;20039;-73
2023/03/22 06:09:54;;;;;;;17.75;3.20;;;15.80;72.20;;;;;;4790527;30;20039;-78
2023/03/22 06:12:23;;;;;;;26.20;4.15;;;15.80;72.10;;;;;;4790844;30;20363;-81
2023/03/22 06:14:49;;;;;;;20.92;3.53;;;15.80;72.10;;;;;;4775246;30;20134;-77
2023/03/22 06:17:15;;;;;;;17.70;3.72;;;15.80;72.00;;;;;;4805052;29;20139;-85
2023/03/22 06:19:43;;;;;;;18.73;4.13;;;15.80;71.90;;;;;;4759630;30;20371;-80
2023/03/22 06:22:09;;;;;;;21.95;3.83;;;15.80;72.00;;;;;;4759847;30;20051;-81
2023/03/22 06:24:35;;;;;;;18.00;3.55;;;15.80;72.00;;;;;;4775295;29;20344;-78
2023/03/22 06:27:01;;;;;;;24.38;4.18;;;15.80;72.00;;;;;;4776866;29;20443;-71
2023/03/22 06:29:27;;;;;;;22.55;4.57;;;15.80;72.00;;;;;;4807902;29;20115;-80
2023/03/22 06:31:53;;;;;;;15.50;4.72;;;15.80;71.90;;;;;;4808243;29;20051;-77
2023/03/22 06:34:18;;;;;;;15.25;4.25;;;15.80;71.60;;;;;;4808272;29;20451;-76
2023/03/22 06:36:44;;;;;;;24.15;4.25;;;15.80;71.70;;;;;;4807330;29;20050;-79
2023/03/22 06:39:12;;;;;;;30.95;4.95;;;15.80;71.90;;;;;;4808156;29;20458;-83
2023/03/22 06:45:13;;;;;;;20.20;5.72;;;15.80;71.60;;;;;;4807810;29;20061;-80
2023/03/22 06:47:39;;;;;;;36.55;5.60;;;15.70;71.70;;;;;;4790339;29;20134;-79
2023/03/22 06:50:05;;;;;;;19.52;3.97;;;15.70;71.70;;;;;;4807922;29;20118;-80
2023/03/22 06:52:31;;;;;;;23.27;4.70;;;15.70;71.70;;;;;;4807547;29;20061;-78
2023/03/22 06:54:56;;;;;;;25.65;4.95;;;15.70;71.60;;;;;;4777265;29;20051;-76
2023/03/22 06:57:22;;;;;;;26.98;4.55;;;15.60;71.70;;;;;;4807798;29;20074;-78
2023/03/22 06:59:48;;;;;;;20.25;4.55;;;15.60;71.60;;;;;;4796861;29;20086;-79
2023/03/22 07:02:14;;;;;;;15.30;4.60;;;15.60;71.50;;;;;;4812311;29;20057;-78
2023/03/22 07:04:40;;;;;;;18.85;4.30;;;15.60;71.30;;;;;;4794746;29;20088;-81
2023/03/22 07:07:05;;;;;;;14.52;4.32;;;15.60;71.20;;;;;;4795076;29;20054;-80
2023/03/22 07:09:31;;;;;;;14.93;4.38;;;15.60;71.00;;;;;;4809369;29;20057;-81
2023/03/22 07:11:57;;;;;;;22.00;4.50;;;15.60;70.90;;;;;;4825560;29;20042;-79
2023/03/22 07:14:23;;;;;;;17.50;4.30;;;15.60;70.90;;;;;;4810096;29;20065;-80
2023/03/22 07:16:48;;;;;;;23.67;4.78;;;15.50;70.80;;;;;;4825573;29;20069;-80
2023/03/22 07:19:16;;;;;;;15.40;4.03;;;15.50;70.80;;;;;;4794627;29;20083;-79
2023/03/22 07:21:42;;;;;;;10.70;3.95;;;15.50;70.80;;;;;;4795092;29;20069;-81
2023/03/22 07:24:08;;;;;;;13.75;3.67;;;15.50;70.80;;;;;;4809939;29;20420;-80
2023/03/22 07:26:33;;;;;;;13.35;3.40;;;15.50;70.70;;;;;;4809952;29;20050;-79
2023/03/22 07:28:59;;;;;;;11.18;3.15;;;15.50;70.70;;;;;;4826592;29;20423;-79
2023/03/22 07:31:25;;;;;;;15.57;4.20;;;15.50;70.60;;;;;;4825064;29;20053;-79
2023/03/22 07:33:51;;;;;;;17.65;3.55;;;15.50;70.60;;;;;;4825744;29;20518;-78
2023/03/22 07:36:22;;;;;;;9.30;3.55;;;15.40;70.50;;;;;;4825564;29;20046;-78
2023/03/22 07:38:49;;;;;;;12.65;4.07;;;15.40;70.50;;;;;;4826085;29;20132;-79
2023/03/22 07:41:14;;;;;;;11.00;3.90;;;15.40;70.60;;;;;;4824767;29;20092;-77
2023/03/22 07:43:40;;;;;;;13.82;3.75;;;15.40;70.70;;;;;;4825411;29;20066;-77
2023/03/22 07:46:06;;;;;;;14.52;3.17;;;15.40;70.80;;;;;;4796910;29;20063;-77
2023/03/22 07:48:33;;;;;;;12.50;4.22;;;15.40;71.10;;;;;;4820876;29;20054;-76
2023/03/22 07:50:59;;;;;;;17.42;3.60;;;15.40;71.30;;;;;;4820822;29;20046;-74
2023/03/22 07:53:25;;;;;;;11.65;3.40;;;15.40;72.20;;;;;;4815795;29;20084;-76
2023/03/22 07:55:51;;;;;;;9.70;3.13;;;15.40;72.60;;;;;;4813874;29;20183;-74
2023/03/22 07:58:16;;;;;;;9.75;3.25;;;15.50;72.90;;;;;;4807446;29;20133;-76
2023/03/22 08:00:42;;;;;;;9.20;2.90;;;15.50;72.70;;;;;;4818119;29;20058;-74
2023/03/22 08:03:11;;;;;;;10.05;3.00;;;15.50;72.90;;;;;;4825373;29;20060;-74
2023/03/22 08:05:40;;;;;;;8.48;2.83;;;15.50;72.50;;;;;;4825462;29;20153;-74
2023/03/22 08:08:07;;;;;;;8.98;2.70;;;15.60;72.90;;;;;;4818235;29;20046;-73
2023/03/22 08:10:33;;;;;;;8.45;2.90;;;15.60;72.20;;;;;;4807480;29;20490;-73
2023/03/22 08:12:59;;;;;;;7.47;2.53;;;15.60;72.10;;;;;;4808399;29;20054;-75
2023/03/22 08:15:25;;;;;;;6.30;3.28;;;15.60;71.80;;;;;;4810883;29;20379;-73
2023/03/22 08:17:51;;;;;;;9.30;2.88;;;15.60;71.60;;;;;;4810381;29;20055;-74
2023/03/22 08:20:17;;;;;;;7.65;2.85;;;15.60;71.70;;;;;;4810376;29;20066;-78
2023/03/22 08:22:44;;;;;;;7.05;2.17;;;15.60;71.50;;;;;;4794623;29;20062;-74
2023/03/22 08:25:10;;;;;;;6.60;2.42;;;15.60;71.40;;;;;;4810396;29;20404;-75
2023/03/22 08:27:36;;;;;;;7.45;2.38;;;15.60;71.30;;;;;;4810495;29;20115;-76
2023/03/22 08:30:04;;;;;;;8.82;2.22;;;15.60;71.20;;;;;;4810249;29;20063;-73
2023/03/22 08:32:31;;;;;;;6.30;2.33;;;15.60;71.10;;;;;;4810218;29;20378;-75
2023/03/22 08:34:57;;;;;;;5.95;2.33;;;15.60;70.90;;;;;;4810197;29;20088;-77
2023/03/22 08:37:22;;;;;;;7.80;2.53;;;15.60;70.70;;;;;;4810234;29;20063;-75
2023/03/22 08:39:48;;;;;;;5.68;1.80;;;15.70;70.70;;;;;;4810119;29;20050;-75
2023/03/22 08:42:14;;;;;;;7.18;2.10;;;15.60;70.50;;;;;;4809924;29;20146;-75
2023/03/22 08:44:40;;;;;;;4.82;1.60;;;15.60;70.50;;;;;;4816351;29;20467;-74
2023/03/22 08:47:06;;;;;;;5.78;1.77;;;15.60;71.00;;;;;;4827790;29;20047;-73
2023/03/22 08:49:32;;;;;;;5.82;2.10;;;15.60;70.40;;;;;;4827241;29;20158;-76
2023/03/22 08:51:57;;;;;;;4.30;1.67;;;15.60;70.40;;;;;;4811943;29;20199;-75
2023/03/22 08:54:26;;;;;;;3.85;1.95;;;15.60;70.30;;;;;;4827641;29;20042;-74
2023/03/22 08:56:57;;;;;;;4.63;1.48;;;15.60;70.30;;;;;;4825446;29;20062;-77
2023/03/22 08:59:23;;;;;;;4.85;1.83;;;15.60;70.20;;;;;;4827538;29;20462;-74
2023/03/22 09:01:49;;;;;;;15.32;1.92;;;15.60;70.30;;;;;;4828155;29;20050;-75
2023/03/22 09:04:15;;;;;;;4.75;1.88;;;15.60;70.20;;;;;;4828148;29;20054;-77
2023/03/22 09:06:44;;;;;;;4.78;1.60;;;15.60;70.20;;;;;;4827862;29;20111;-75
2023/03/22 09:09:10;;;;;;;7.10;1.55;;;15.60;70.10;;;;;;4819218;29;20047;-75
2023/03/22 09:11:36;;;;;;;5.20;1.23;;;15.60;70.20;;;;;;4810271;29;20351;-75
2023/03/22 09:14:03;;;;;;;9.07;1.48;;;15.50;70.30;;;;;;4810234;29;20082;-77
2023/03/22 09:16:29;;;;;;;4.47;1.75;;;15.50;70.40;;;;;;4819055;29;20051;-71
2023/03/22 09:18:54;;;;;;;6.70;2.13;;;15.50;70.50;;;;;;4824277;29;20034;-77
2023/03/22 09:21:20;;;;;;;3.67;1.40;;;15.50;70.70;;;;;;4822649;29;20123;-75
2023/03/22 09:23:46;;;;;;;8.35;1.52;;;15.50;70.30;;;;;;4825064;29;20077;-75
2023/03/22 09:26:12;;;;;;;6.40;1.20;;;15.50;70.30;;;;;;4827532;29;20133;-74
2023/03/22 09:28:38;;;;;;;6.13;1.80;;;15.60;70.50;;;;;;4819375;29;20047;-75
2023/03/22 09:31:07;;;;;;;6.55;1.40;;;15.60;70.50;;;;;;4809125;29;20463;-75
2023/03/22 09:33:34;;;;;;;8.85;1.20;;;15.60;70.40;;;;;;4809201;29;20065;-75
2023/03/22 09:36:00;;;;;;;5.72;1.50;;;15.70;70.50;;;;;;4809078;29;20130;-79
2023/03/22 09:38:26;;;;;;;9.63;1.40;;;15.70;70.80;;;;;;4809134;29;20138;-73
2023/03/22 09:40:59;;;;;;;13.43;2.40;;;15.80;70.60;;;;;;4816250;29;20125;-73
2023/03/22 09:43:42;;;;;;;14.82;2.25;;;15.80;70.50;;;;;;4820402;29;20527;-75
2023/03/22 09:46:14;;;;;;;10.68;1.85;;;15.80;70.70;;;;;;4824799;29;20131;-74
2023/03/22 09:48:42;;;;;;;10.98;2.00;;;15.80;70.50;;;;;;4812573;29;20078;-74
2023/03/22 09:51:35;;;;;;;10.80;1.60;;;15.90;70.50;;;;;;4808926;29;20055;-73
2023/03/22 09:54:01;;;;;;;11.27;1.73;;;15.90;70.50;;;;;;4808729;29;20116;-74
2023/03/22 09:56:30;;;;;;;11.18;1.80;;;15.90;70.50;;;;;;4826569;29;20050;-74
2023/03/22 09:59:22;;;;;;;11.80;1.73;;;15.90;70.50;;;;;;4825130;29;20107;-74
2023/03/22 10:01:57;;;;;;;7.68;1.77;;;15.90;70.40;;;;;;4822103;29;20077;-74
2023/03/22 10:04:34;;;;;;;11.00;1.45;;;15.90;70.50;;;;;;4815202;29;20138;-73
2023/03/22 10:07:15;;;;;;;16.10;2.10;;;15.90;70.40;;;;;;4808878;29;20134;-74
2023/03/22 10:09:47;;;;;;;6.13;0.88;;;16.10;70.40;;;;;;4792437;29;20066;-74
2023/03/22 10:12:44;;;;;;;8.90;1.38;;;16.10;70.30;;;;;;4808881;29;20073;-74
2023/03/22 10:15:27;;;;;;;10.85;1.42;;;16.20;70.20;;;;;;4808884;29;20050;-74
2023/03/22 10:17:55;;;;;;;12.27;1.40;;;16.30;70.10;;;;;;4808559;29;20070;-76
2023/03/22 10:20:28;;;;;;;9.93;1.88;;;16.30;70.10;;;;;;4811249;29;20042;-74
2023/03/22 10:22:56;;;;;;;9.13;1.98;;;16.40;70.00;;;;;;4824414;29;20050;-76
2023/03/22 10:25:29;;;;;;;7.53;1.65;;;16.40;70.00;;;;;;4815365;29;20061;-74
2023/03/22 10:27:56;;;;;;;6.53;1.63;;;16.50;69.90;;;;;;4822418;29;20058;-73
2023/03/22 10:30:24;;;;;;;8.60;1.23;;;16.50;69.80;;;;;;4815434;29;20466;-78
2023/03/22 10:32:59;;;;;;;8.68;1.58;;;16.60;70.00;;;;;;4816729;29;20363;-72
2023/03/22 10:35:26;;;;;;;12.77;1.42;;;16.60;69.80;;;;;;4816985;29;20125;-74
2023/03/22 10:37:53;;;;;;;9.95;1.40;;;16.60;69.80;;;;;;4813735;29;20051;-74
2023/03/22 10:40:27;;;;;;;8.65;1.30;;;16.60;69.90;;;;;;4807387;29;20046;-73
2023/03/22 10:42:58;;;;;;;10.55;1.15;;;16.60;69.70;;;;;;4825165;29;20069;-73
2023/03/22 10:45:26;;;;;;;9.40;1.33;;;16.50;69.60;;;;;;4811663;29;20356;-73
2023/03/22 10:47:58;;;;;;;12.18;1.40;;;16.50;69.60;;;;;;4814933;29;20061;-74
2023/03/22 10:50:34;;;;;;;7.97;1.20;;;16.50;69.50;;;;;;4821734;29;20061;-74
2023/03/22 10:53:20;;;;;;;8.45;1.23;;;16.50;69.50;;;;;;4824816;29;20057;-75
2023/03/22 10:55:46;;;;;;;8.65;1.00;;;16.40;69.50;;;;;;4825195;29;20050;-75
2023/03/22 10:58:16;;;;;;;8.15;1.67;;;16.40;69.60;;;;;;4826520;29;20054;-75
2023/03/22 11:00:52;;;;;;;7.07;1.35;;;16.50;69.50;;;;;;4809232;29;20089;-75
2023/03/22 11:03:27;;;;;;;7.60;1.17;;;16.40;69.40;;;;;;4804035;29;20419;-76
2023/03/22 11:06:01;;;;;;;6.60;0.93;;;16.50;69.40;;;;;;4825821;29;20133;-76
2023/03/22 11:08:27;;;;;;;3.83;1.10;;;16.50;69.30;;;;;;4826705;29;20068;-76
2023/03/22 11:10:57;;;;;;;6.07;1.58;;;16.50;69.20;;;;;;4825656;29;20129;-75
2023/03/22 11:13:24;;;;;;;6.22;1.13;;;16.50;69.10;;;;;;4826243;29;20053;-75
2023/03/22 11:16:02;;;;;;;5.20;1.38;;;16.50;69.00;;;;;;4825771;29;20478;-75
2023/03/22 11:18:33;;;;;;;5.95;0.82;;;16.50;68.90;;;;;;4823432;29;20082;-76
2023/03/22 11:21:08;;;;;;;3.97;1.25;;;16.60;68.80;;;;;;4808456;29;20133;-76
2023/03/22 11:23:37;;;;;;;5.18;1.17;;;16.50;68.70;;;;;;4822099;29;20366;-76
2023/03/22 11:26:10;;;;;;;2.95;0.60;;;16.50;68.70;;;;;;4826267;29;20119;-76
2023/03/22 11:28:46;;;;;;;5.70;0.93;;;16.50;68.70;;;;;;4825060;29;20064;-76
2023/03/22 11:31:14;;;;;;;8.82;1.33;;;16.60;68.70;;;;;;4825852;29;20050;-76
2023/03/22 11:33:54;;;;;;;8.68;1.17;;;16.60;68.60;;;;;;4819414;29;20462;-75
2023/03/22 11:36:22;;;;;;;5.05;1.05;;;16.60;68.60;;;;;;4823314;29;20378;-77
2023/03/22 11:38:47;;;;;;;5.68;0.75;;;16.60;68.60;;;;;;4825147;29;20068;-76
2023/03/22 11:41:20;;;;;;;4.57;0.70;;;16.60;68.60;;;;;;4826296;29;20502;-75
2023/03/22 11:43:50;;;;;;;4.53;1.02;;;16.60;68.60;;;;;;4809405;29;20074;-76
2023/03/22 11:46:20;;;;;;;4.63;1.10;;;16.60;68.60;;;;;;4807587;29;20051;-76
2023/03/22 11:48:49;;;;;;;6.25;1.50;;;16.60;68.50;;;;;;4814140;29;20477;-77
2023/03/22 11:51:25;;;;;;;5.10;0.88;;;16.60;68.50;;;;;;4811298;29;20123;-77
2023/03/22 11:54:05;;;;;;;5.63;0.82;;;16.60;68.40;;;;;;4811104;29;20078;-76
2023/03/22 11:56:31;;;;;;;4.72;0.80;;;16.60;68.70;;;;;;4810391;29;20066;-77
2023/03/22 11:59:29;;;;;;;7.82;1.30;;;16.60;69.10;;;;;;4810807;29;20069;-77
2023/03/22 12:02:21;;;;;;;4.57;0.70;;;16.60;69.40;;;;;;4810743;29;20051;-75
2023/03/22 12:04:50;;;;;;;6.75;1.30;;;16.60;69.70;;;;;;4813966;29;20428;-75
2023/03/22 12:07:20;;;;;;;9.20;1.70;;;16.60;70.00;;;;;;4823775;29;20090;-75
2023/03/22 12:10:02;;;;;;;10.05;1.35;;;16.50;69.40;;;;;;4820619;29;20061;-74
2023/03/22 12:12:34;;;;;;;16.83;2.03;;;16.60;70.10;;;;;;4828422;29;20361;-72
2023/03/22 12:15:06;;;;;;;12.15;2.60;;;16.50;70.30;;;;;;4822391;29;20038;-75
2023/03/22 12:17:40;;;;;;;15.68;2.67;;;16.50;70.00;;;;;;4823535;29;20131;-75
2023/03/22 12:20:25;;;;;;;11.00;1.92;;;16.50;69.50;;;;;;4823654;29;20055;-76
2023/03/22 12:22:55;;;;;;;13.52;2.35;;;16.50;69.20;;;;;;4828511;29;20054;-74
2023/03/22 12:25:27;;;;;;;25.40;4.30;;;16.50;69.00;;;;;;4825530;29;20054;-73
2023/03/22 12:27:58;;;;;;;17.40;2.72;;;16.50;69.00;;;;;;4824379;29;20061;-70
2023/03/22 12:30:30;;;;;;;9.30;2.63;;;16.50;68.50;;;;;;4820880;29;20125;-79
2023/03/22 12:33:16;;;;;;;9.68;2.22;;;16.40;68.10;;;;;;4806430;29;20115;-79
2023/03/22 12:35:45;;;;;;;13.27;2.42;;;16.30;68.00;;;;;;4826941;29;20050;-77
2023/03/22 12:38:48;;;;;;;7.43;1.70;;;16.30;68.10;;;;;;4815816;29;20161;-80
2023/03/22 12:41:31;;;;;;;9.05;2.13;;;16.30;68.00;;;;;;4815714;29;20054;-82
2023/03/22 12:43:59;;;;;;;9.23;2.38;;;16.20;68.20;;;;;;4805762;29;20082;-78
2023/03/22 12:46:31;;;;;;;6.57;2.00;;;16.20;68.40;;;;;;4825617;29;20046;-81
2023/03/22 12:49:04;;;;;;;11.07;2.08;;;16.20;68.40;;;;;;4811925;29;20061;-79
2023/03/22 12:51:30;;;;;;;4.43;1.80;;;16.00;68.50;;;;;;4825676;29;20058;-78
2023/03/22 12:54:01;;;;;;;9.27;1.58;;;16.00;68.80;;;;;;4827274;29;20466;-79
2023/03/22 12:56:40;;;;;;;5.18;1.42;;;15.90;69.00;;;;;;4810604;29;20042;-80
2023/03/22 12:59:18;;;;;;;4.88;1.70;;;15.80;69.50;;;;;;4823805;29;20114;-84
2023/03/22 13:01:56;;;;;;;6.28;1.50;;;15.80;69.80;;;;;;4817513;29;20378;-82
2023/03/22 13:04:26;;;;;;;4.10;1.20;;;15.80;70.00;;;;;;4809671;29;20072;-82
2023/03/22 13:06:53;;;;;;;5.53;1.50;;;15.70;70.10;;;;;;4812786;29;20569;-84
2023/03/22 13:09:43;;;;;;;6.93;1.40;;;15.70;70.10;;;;;;4788587;29;20095;-81
2023/03/22 13:12:20;;;;;;;6.25;1.60;;;15.70;70.00;;;;;;4788354;29;20057;-83
2023/03/22 13:17:36;;;;;;;5.57;1.30;;;15.70;70.40;;;;;;4819234;29;20057;-79
2023/03/22 13:20:10;;;;;;;4.47;1.17;;;15.70;70.20;;;;;;4812189;29;20129;-83
2023/03/22 13:22:40;;;;;;;;;;;15.60;70.20;;;;;;4796063;29;20065;-78
2023/03/22 13:25:09;;;;;;;7.20;1.90;;;15.60;70.10;;;;;;4827033;29;19925;-82
2023/03/22 13:27:44;;;;;;;6.28;1.60;;;15.60;70.40;;;;;;4809780;29;20084;-78
2023/03/22 13:30:46;;;;;;;8.40;1.55;;;15.60;70.40;;;;;;4827087;29;20107;-80
2023/03/22 13:33:24;;;;;;;7.30;1.40;;;15.60;70.40;;;;;;4825374;29;20115;-78
2023/03/22 13:35:56;;;;;;;4.88;1.23;;;15.60;70.50;;;;;;4807456;29;20155;-79
2023/03/22 13:38:33;;;;;;;5.20;1.48;;;15.60;70.50;;;;;;4824631;29;20129;-80
2023/03/22 13:41:14;;;;;;;6.65;1.58;;;15.50;70.50;;;;;;4808019;29;20061;-80
2023/03/22 13:43:49;;;;;;;8.70;1.90;;;15.60;70.80;;;;;;4790127;29;20114;-80
2023/03/22 13:46:20;;;;;;;17.80;2.38;;;15.60;70.80;;;;;;4810300;29;20506;-84
2023/03/22 13:48:46;;;;;;;10.43;2.10;;;15.60;70.90;;;;;;4811023;29;20169;-82
2023/03/22 13:51:21;;;;;;;12.98;1.73;;;15.60;71.20;;;;;;4809104;29;20166;-77
2023/03/22 13:54:06;;;;;;;20.55;3.45;;;15.60;71.30;;;;;;4809665;29;20046;-76
2023/03/22 13:56:40;;;;;;;21.60;3.05;;;15.60;71.50;;;;;;4816219;29;20113;-79
2023/03/22 13:59:09;;;;;;;24.10;3.42;;;15.70;71.80;;;;;;4817494;29;20063;-75
2023/03/22 14:01:58;;;;;;;18.08;3.45;;;15.70;71.90;;;;;;4812046;29;20517;-74
2023/03/22 14:04:33;;;;;;;22.30;4.25;;;15.90;72.30;;;;;;4808572;29;20109;-77
2023/03/22 14:07:07;;;;;;;21.30;3.63;;;15.90;72.40;;;;;;4808734;29;20138;-75
2023/03/22 14:09:44;;;;;;;;;;;16.00;72.40;;;;;;4827244;29;20065;-74
2023/03/22 14:12:18;;;;;;;21.75;4.05;;;16.00;72.70;;;;;;4826846;29;19928;-75
2023/03/22 14:14:49;;;;;;;25.25;4.43;;;16.10;72.50;;;;;;4826892;29;20054;-74
2023/03/22 14:17:42;;;;;;;22.25;4.20;;;16.20;72.80;;;;;;4826706;29;20065;-74
2023/03/22 14:20:14;;;;;;;19.08;3.00;;;16.20;73.20;;;;;;4826639;29;20131;-75
2023/03/22 14:22:46;;;;;;;20.23;3.63;;;16.20;72.90;;;;;;4825900;29;20103;-78
2023/03/22 14:25:18;;;;;;;18.73;3.63;;;16.30;73.00;;;;;;4826620;29;20053;-78
2023/03/22 14:27:44;;;;;;;24.27;3.40;;;16.30;73.60;;;;;;4824358;29;20137;-75
2023/03/22 14:30:26;;;;;;;17.05;3.00;;;16.30;72.90;;;;;;4826656;29;20133;-77
2023/03/22 14:32:58;;;;;;;15.95;3.33;;;16.30;73.30;;;;;;4810202;29;20058;-77
2023/03/22 14:35:42;;;;;;;19.15;3.38;;;16.30;73.40;;;;;;4826209;29;20094;-80
2023/03/22 14:38:26;;;;;;;16.95;3.40;;;16.30;73.50;;;;;;4827329;29;20077;-76
2023/03/22 14:41:06;;;;;;;19.40;3.20;;;16.30;73.30;;;;;;4817579;29;20735;-76
2023/03/22 14:43:32;;;;;;;18.38;5.45;;;16.30;73.40;;;;;;4808366;29;20105;-74
2023/03/22 14:46:09;;;;;;;20.38;4.30;;;16.30;73.50;;;;;;4818140;29;20435;-77
2023/03/22 14:48:38;;;;;;;13.20;4.28;;;16.30;73.70;;;;;;4826460;29;20351;-81
2023/03/22 14:51:13;;;;;;;20.65;3.95;;;16.20;73.70;;;;;;4826328;29;20130;-77
2023/03/22 14:53:40;;;;;;;14.55;6.07;;;16.20;73.60;;;;;;4826564;29;20133;-77
2023/03/22 14:56:42;;;;;;;26.58;7.53;;;16.20;74.10;;;;;;4826178;29;20068;-82
2023/03/22 14:59:18;;;;;;;15.05;4.78;;;16.20;75.10;;;;;;4719389;30;20041;-79
2023/03/22 15:01:58;;;;;;;18.92;3.20;;;16.20;75.00;;;;;;4795862;29;20062;-79
2023/03/22 15:04:24;;;;;;;17.90;3.97;;;16.20;74.40;;;;;;4815509;29;20054;-80
2023/03/22 15:07:02;;;;;;;15.32;3.33;;;16.20;74.60;;;;;;4810566;29;20200;-79
2023/03/22 15:09:28;;;;;;;17.13;3.63;;;16.20;73.80;;;;;;4804328;29;20066;-80
2023/03/22 15:12:00;;;;;;;11.77;3.17;;;16.20;73.80;;;;;;4808417;29;20054;-79
2023/03/22 15:14:32;;;;;;;10.63;3.55;;;16.20;73.60;;;;;;4816690;29;20081;-77
2023/03/22 15:16:59;;;;;;;11.68;3.30;;;16.20;73.60;;;;;;4808959;29;20050;-75
2023/03/22 15:19:31;;;;;;;14.50;2.97;;;16.20;73.60;;;;;;4819600;29;20046;-75
2023/03/22 15:22:17;;;;;;;12.35;2.97;;;16.20;73.60;;;;;;4821487;29;20051;-76
2023/03/22 15:24:57;;;;;;;13.55;3.30;;;16.20;73.50;;;;;;4829265;29;20175;-77
2023/03/22 15:27:23;;;;;;;12.95;2.78;;;16.20;73.60;;;;;;4828917;29;20466;-76
2023/03/22 15:29:51;;;;;;;12.35;3.30;;;16.20;74.10;;;;;;4829787;29;20061;-76
2023/03/22 15:32:24;;;;;;;13.82;2.95;;;16.20;73.50;;;;;;4829474;29;20046;-76
2023/03/22 15:34:52;;;;;;;13.15;2.58;;;16.20;73.60;;;;;;4813480;29;20050;-76
2023/03/22 15:37:32;;;;;;;10.75;2.90;;;16.20;73.50;;;;;;4829207;29;20064;-75
2023/03/22 15:40:00;;;;;;;12.23;2.42;;;16.20;73.50;;;;;;4829892;29;20191;-76
2023/03/22 15:42:38;;;;;;;16.85;3.35;;;16.20;73.40;;;;;;4827915;29;20458;-74
2023/03/22 15:45:21;;;;;;;11.25;2.65;;;16.20;73.40;;;;;;4817497;29;20119;-75
2023/03/22 15:48:03;;;;;;;12.88;2.60;;;16.20;73.30;;;;;;4818238;29;20050;-75
2023/03/22 15:50:29;;;;;;;11.20;2.45;;;16.20;73.20;;;;;;4820564;29;20044;-75
2023/03/22 15:52:58;;;;;;;9.00;2.47;;;16.20;73.20;;;;;;4810797;29;20452;-75
2023/03/22 15:55:33;;;;;;;7.07;2.20;;;16.20;72.80;;;;;;4824506;29;20541;-75
2023/03/22 15:58:01;;;;;;;8.60;1.98;;;16.20;72.70;;;;;;4829122;29;20056;-75
2023/03/22 16:00:36;;;;;;;9.02;2.35;;;16.20;72.70;;;;;;4828646;29;20038;-74
2023/03/22 16:03:05;;;;;;;6.70;2.95;;;16.20;72.80;;;;;;4828474;29;20077;-76
2023/03/22 16:05:33;;;;;;;11.25;2.13;;;16.20;72.80;;;;;;4828352;29;20481;-75
2023/03/22 16:08:01;;;;;;;11.93;2.25;;;16.20;72.80;;;;;;4829066;29;20419;-73
2023/03/22 16:10:28;;;;;;;6.72;2.10;;;16.20;72.90;;;;;;4827718;29;20073;-77
2023/03/22 16:12:55;;;;;;;8.20;2.08;;;16.00;72.30;;;;;;4828560;29;20073;-75
2023/03/22 16:15:27;;;;;;;7.20;1.85;;;16.00;72.80;;;;;;4828619;29;20064;-78
2023/03/22 16:17:53;;;;;;;10.90;2.20;;;16.00;72.90;;;;;;4828380;29;20466;-74
2023/03/22 16:20:19;;;;;;;7.95;1.70;;;16.00;72.90;;;;;;4812530;29;20042;-74
2023/03/22 16:22:47;;;;;;;5.65;1.98;;;16.00;72.90;;;;;;4828745;29;20427;-74
2023/03/22 16:25:24;;;;;;;10.63;2.10;;;16.10;72.90;;;;;;4828328;29;20054;-74
2023/03/22 16:27:51;;;;;;;7.78;2.00;;;16.10;72.90;;;;;;4828853;29;20097;-74
2023/03/22 16:30:17;;;;;;;15.23;1.90;;;16.10;72.90;;;;;;4828136;29;20042;-73
2023/03/22 16:32:45;;;;;;;12.13;2.38;;;16.10;73.00;;;;;;4827249;29;20474;-74
2023/03/22 16:35:19;;;;;;;15.35;2.47;;;16.20;73.30;;;;;;4827877;29;20051;-74
2023/03/22 16:37:46;;;;;;;17.60;2.58;;;16.10;73.50;;;;;;4828267;29;20065;-74
2023/03/22 16:40:15;;;;;;;9.60;2.00;;;16.10;73.80;;;;;;4827371;29;20053;-79
2023/03/22 16:42:40;;;;;;;15.90;3.00;;;16.10;73.80;;;;;;4811761;29;20058;-75
2023/03/22 16:45:21;;;;;;;15.57;2.53;;;16.20;74.00;;;;;;4809784;29;20059;-74
2023/03/22 16:47:48;;;;;;;20.48;2.70;;;16.20;74.20;;;;;;4793949;29;20062;-73
2023/03/22 16:50:14;;;;;;;23.20;3.72;;;16.20;74.40;;;;;;4809721;29;20059;-75
2023/03/22 16:52:40;;;;;;;17.75;2.67;;;16.10;74.60;;;;;;4818835;29;20478;-74
2023/03/22 16:55:15;;;;;;;22.65;3.03;;;16.10;74.60;;;;;;4811697;29;20057;-75
2023/03/22 16:57:41;;;;;;;23.27;3.33;;;16.20;74.80;;;;;;4814844;29;20057;-76
2023/03/22 17:00:08;;;;;;;22.08;2.95;;;16.10;74.70;;;;;;4827723;29;20374;-75
2023/03/22 17:02:36;;;;;;;24.50;3.65;;;16.20;74.70;;;;;;4814859;29;20065;-75
2023/03/22 17:05:03;;;;;;;26.60;3.80;;;16.10;74.80;;;;;;4807769;29;20121;-74
2023/03/22 17:07:30;;;;;;;26.75;3.30;;;16.10;74.70;;;;;;4827755;29;20130;-75
2023/03/22 17:09:57;;;;;;;18.42;3.20;;;16.20;74.70;;;;;;4827729;29;20038;-76
2023/03/22 17:12:37;;;;;;;25.05;3.65;;;16.20;74.50;;;;;;4827747;29;20060;-79
